sensor_id;sensor_type;location;lat;lon;timestamp;temperature;humidity
39483;DHT22;25682;48.438;1.482;2022-12-10T00:01:16;18.30;54.90
39483;DHT22;25682;48.438;1.482;2022-12-10T00:03:42;18.30;54.80
39483;DHT22;25682;48.438;1.482;2022-12-10T00:06:09;18.30;54.80
39483;DHT22;25682;48.438;1.482;2022-12-10T00:08:35;18.30;54.80
39483;DHT22;25682;48.438;1.482;2022-12-10T00:11:04;18.30;54.70
39483;DHT22;25682;48.438;1.482;2022-12-10T00:13:30;18.30;54.60
39483;DHT22;25682;48.438;1.482;2022-12-10T00:15:58;18.20;54.50
39483;DHT22;25682;48.438;1.482;2022-12-10T00:18:24;18.20;54.50
39483;DHT22;25682;48.438;1.482;2022-12-10T00:20:49;18.20;54.40
39483;DHT22;25682;48.438;1.482;2022-12-10T00:23:15;18.20;54.40
39483;DHT22;25682;48.438;1.482;2022-12-10T00:25:41;18.20;54.30
39483;DHT22;25682;48.438;1.482;2022-12-10T00:28:06;18.20;54.30
39483;DHT22;25682;48.438;1.482;2022-12-10T00:30:32;18.20;54.20
39483;DHT22;25682;48.438;1.482;2022-12-10T00:32:58;18.10;54.10
39483;DHT22;25682;48.438;1.482;2022-12-10T00:35:23;18.10;54.10
39483;DHT22;25682;48.438;1.482;2022-12-10T00:37:49;18.10;54.10
39483;DHT22;25682;48.438;1.482;2022-12-10T00:40:14;18.20;54.10
39483;DHT22;25682;48.438;1.482;2022-12-10T00:42:40;18.10;54.00
39483;DHT22;25682;48.438;1.482;2022-12-10T00:45:05;18.10;53.90
39483;DHT22;25682;48.438;1.482;2022-12-10T00:47:31;18.10;53.90
39483;DHT22;25682;48.438;1.482;2022-12-10T00:49:56;18.10;53.80
39483;DHT22;25682;48.438;1.482;2022-12-10T00:52:22;18.10;53.80
39483;DHT22;25682;48.438;1.482;2022-12-10T00:54:47;18.10;53.70
39483;DHT22;25682;48.438;1.482;2022-12-10T00:57:13;18.10;53.70
39483;DHT22;25682;48.438;1.482;2022-12-10T00:59:38;18.10;53.70
39483;DHT22;25682;48.438;1.482;2022-12-10T01:02:04;18.10;53.70
39483;DHT22;25682;48.438;1.482;2022-12-10T01:04:29;18.10;53.70
39483;DHT22;25682;48.438;1.482;2022-12-10T01:06:55;18.10;53.60
39483;DHT22;25682;48.438;1.482;2022-12-10T01:09:21;18.00;53.50
39483;DHT22;25682;48.438;1.482;2022-12-10T01:11:47;18.00;53.40
39483;DHT22;25682;48.438;1.482;2022-12-10T01:14:26;18.00;53.30
39483;DHT22;25682;48.438;1.482;2022-12-10T01:16:53;18.00;53.30
39483;DHT22;25682;48.438;1.482;2022-12-10T01:19:19;18.00;53.30
39483;DHT22;25682;48.438;1.482;2022-12-10T01:21:49;18.00;53.20
39483;DHT22;25682;48.438;1.482;2022-12-10T01:24:14;18.00;53.20
39483;DHT22;25682;48.438;1.482;2022-12-10T01:26:40;18.00;53.20
39483;DHT22;25682;48.438;1.482;2022-12-10T01:29:05;18.00;53.10
39483;DHT22;25682;48.438;1.482;2022-12-10T01:31:32;18.00;53.10
39483;DHT22;25682;48.438;1.482;2022-12-10T01:33:58;17.90;53.00
39483;DHT22;25682;48.438;1.482;2022-12-10T01:36:24;18.00;53.00
39483;DHT22;25682;48.438;1.482;2022-12-10T01:38:50;18.00;53.00
39483;DHT22;25682;48.438;1.482;2022-12-10T01:41:21;17.90;52.90
39483;DHT22;25682;48.438;1.482;2022-12-10T01:46:29;17.90;52.80
39483;DHT22;25682;48.438;1.482;2022-12-10T01:48:55;17.90;52.80
39483;DHT22;25682;48.438;1.482;2022-12-10T01:51:21;17.90;52.80
39483;DHT22;25682;48.438;1.482;2022-12-10T01:53:47;17.90;52.70
39483;DHT22;25682;48.438;1.482;2022-12-10T01:56:12;17.90;52.70
39483;DHT22;25682;48.438;1.482;2022-12-10T01:58:38;17.90;52.60
39483;DHT22;25682;48.438;1.482;2022-12-10T02:01:07;17.90;52.60
39483;DHT22;25682;48.438;1.482;2022-12-10T02:06:23;17.90;52.50
39483;DHT22;25682;48.438;1.482;2022-12-10T02:08:48;17.90;52.40
39483;DHT22;25682;48.438;1.482;2022-12-10T02:11:20;17.90;52.40
39483;DHT22;25682;48.438;1.482;2022-12-10T02:13:52;17.90;52.40
39483;DHT22;25682;48.438;1.482;2022-12-10T02:16:31;17.90;52.30
39483;DHT22;25682;48.438;1.482;2022-12-10T02:19:03;17.80;52.20
39483;DHT22;25682;48.438;1.482;2022-12-10T02:21:33;17.90;52.30
39483;DHT22;25682;48.438;1.482;2022-12-10T02:24:00;17.80;52.10
39483;DHT22;25682;48.438;1.482;2022-12-10T02:26:30;17.80;52.10
39483;DHT22;25682;48.438;1.482;2022-12-10T02:31:29;17.80;52.10
39483;DHT22;25682;48.438;1.482;2022-12-10T02:33:57;17.80;52.00
39483;DHT22;25682;48.438;1.482;2022-12-10T02:36:24;17.80;52.00
39483;DHT22;25682;48.438;1.482;2022-12-10T02:38:50;17.80;51.90
39483;DHT22;25682;48.438;1.482;2022-12-10T02:41:18;17.80;51.90
39483;DHT22;25682;48.438;1.482;2022-12-10T02:43:45;17.80;51.90
39483;DHT22;25682;48.438;1.482;2022-12-10T02:46:11;17.80;51.80
39483;DHT22;25682;48.438;1.482;2022-12-10T02:48:37;17.80;51.80
39483;DHT22;25682;48.438;1.482;2022-12-10T02:51:04;17.80;51.80
39483;DHT22;25682;48.438;1.482;2022-12-10T02:53:30;17.80;51.70
39483;DHT22;25682;48.438;1.482;2022-12-10T02:56:00;17.80;51.60
39483;DHT22;25682;48.438;1.482;2022-12-10T02:58:45;17.80;51.60
39483;DHT22;25682;48.438;1.482;2022-12-10T03:04:37;17.80;51.60
39483;DHT22;25682;48.438;1.482;2022-12-10T03:06:51;17.80;51.50
39483;DHT22;25682;48.438;1.482;2022-12-10T03:09:20;17.80;51.50
39483;DHT22;25682;48.438;1.482;2022-12-10T03:11:47;17.70;51.40
39483;DHT22;25682;48.438;1.482;2022-12-10T03:14:22;17.70;51.30
39483;DHT22;25682;48.438;1.482;2022-12-10T03:16:50;17.70;51.30
39483;DHT22;25682;48.438;1.482;2022-12-10T03:19:17;17.70;51.30
39483;DHT22;25682;48.438;1.482;2022-12-10T03:21:43;17.70;51.20
39483;DHT22;25682;48.438;1.482;2022-12-10T03:24:09;17.70;51.20
39483;DHT22;25682;48.438;1.482;2022-12-10T03:26:36;17.70;51.20
39483;DHT22;25682;48.438;1.482;2022-12-10T03:29:06;17.70;51.10
39483;DHT22;25682;48.438;1.482;2022-12-10T03:31:32;17.80;51.20
39483;DHT22;25682;48.438;1.482;2022-12-10T03:33:59;17.70;51.10
39483;DHT22;25682;48.438;1.482;2022-12-10T03:36:25;17.70;51.00
39483;DHT22;25682;48.438;1.482;2022-12-10T03:38:52;17.70;51.00
39483;DHT22;25682;48.438;1.482;2022-12-10T03:41:17;17.70;51.00
39483;DHT22;25682;48.438;1.482;2022-12-10T03:43:54;17.70;50.90
39483;DHT22;25682;48.438;1.482;2022-12-10T03:46:20;17.70;50.90
39483;DHT22;25682;48.438;1.482;2022-12-10T03:48:46;17.70;50.90
39483;DHT22;25682;48.438;1.482;2022-12-10T03:51:11;17.70;50.90
39483;DHT22;25682;48.438;1.482;2022-12-10T03:53:37;17.70;50.80
39483;DHT22;25682;48.438;1.482;2022-12-10T03:56:02;17.70;51.40
39483;DHT22;25682;48.438;1.482;2022-12-10T03:58:28;17.70;50.80
39483;DHT22;25682;48.438;1.482;2022-12-10T04:00:53;17.60;50.70
39483;DHT22;25682;48.438;1.482;2022-12-10T04:03:19;17.60;50.70
39483;DHT22;25682;48.438;1.482;2022-12-10T04:05:44;17.60;50.60
39483;DHT22;25682;48.438;1.482;2022-12-10T04:08:10;17.60;50.60
39483;DHT22;25682;48.438;1.482;2022-12-10T04:10:36;17.60;50.60
39483;DHT22;25682;48.438;1.482;2022-12-10T04:13:02;17.60;50.60
39483;DHT22;25682;48.438;1.482;2022-12-10T04:15:46;17.60;50.60
39483;DHT22;25682;48.438;1.482;2022-12-10T04:18:30;17.70;50.70
39483;DHT22;25682;48.438;1.482;2022-12-10T04:20:55;17.80;50.70
39483;DHT22;25682;48.438;1.482;2022-12-10T04:23:39;17.80;50.70
39483;DHT22;25682;48.438;1.482;2022-12-10T04:26:24;17.90;50.70
39483;DHT22;25682;48.438;1.482;2022-12-10T04:29:08;17.90;50.80
39483;DHT22;25682;48.438;1.482;2022-12-10T04:31:34;18.00;50.80
39483;DHT22;25682;48.438;1.482;2022-12-10T04:33:59;18.00;50.80
39483;DHT22;25682;48.438;1.482;2022-12-10T04:36:25;18.00;50.80
39483;DHT22;25682;48.438;1.482;2022-12-10T04:38:50;18.00;50.80
39483;DHT22;25682;48.438;1.482;2022-12-10T04:41:16;18.10;50.90
39483;DHT22;25682;48.438;1.482;2022-12-10T04:43:41;18.10;50.90
39483;DHT22;25682;48.438;1.482;2022-12-10T04:46:08;18.10;50.90
39483;DHT22;25682;48.438;1.482;2022-12-10T04:48:33;18.10;50.90
39483;DHT22;25682;48.438;1.482;2022-12-10T04:50:59;18.10;50.80
39483;DHT22;25682;48.438;1.482;2022-12-10T04:53:24;18.10;50.80
39483;DHT22;25682;48.438;1.482;2022-12-10T04:55:50;18.10;50.70
39483;DHT22;25682;48.438;1.482;2022-12-10T04:58:15;18.10;50.70
39483;DHT22;25682;48.438;1.482;2022-12-10T05:00:41;18.10;50.70
39483;DHT22;25682;48.438;1.482;2022-12-10T05:03:06;18.10;50.70
39483;DHT22;25682;48.438;1.482;2022-12-10T05:05:33;18.20;50.80
39483;DHT22;25682;48.438;1.482;2022-12-10T05:07:58;18.20;50.70
39483;DHT22;25682;48.438;1.482;2022-12-10T05:10:24;18.20;50.80
39483;DHT22;25682;48.438;1.482;2022-12-10T05:12:49;18.20;50.70
39483;DHT22;25682;48.438;1.482;2022-12-10T05:15:15;18.20;50.70
39483;DHT22;25682;48.438;1.482;2022-12-10T05:17:41;18.20;50.70
39483;DHT22;25682;48.438;1.482;2022-12-10T05:20:06;18.20;50.70
39483;DHT22;25682;48.438;1.482;2022-12-10T05:22:32;18.20;51.30
39483;DHT22;25682;48.438;1.482;2022-12-10T05:25:17;18.20;50.70
39483;DHT22;25682;48.438;1.482;2022-12-10T05:27:42;18.30;50.70
39483;DHT22;25682;48.438;1.482;2022-12-10T05:30:08;18.30;50.70
39483;DHT22;25682;48.438;1.482;2022-12-10T05:32:34;18.30;50.70
39483;DHT22;25682;48.438;1.482;2022-12-10T05:35:00;18.30;50.70
39483;DHT22;25682;48.438;1.482;2022-12-10T05:37:25;18.30;50.60
39483;DHT22;25682;48.438;1.482;2022-12-10T05:39:51;18.30;50.60
39483;DHT22;25682;48.438;1.482;2022-12-10T05:42:16;18.30;50.60
39483;DHT22;25682;48.438;1.482;2022-12-10T05:44:42;18.30;50.50
39483;DHT22;25682;48.438;1.482;2022-12-10T05:47:07;18.30;50.50
39483;DHT22;25682;48.438;1.482;2022-12-10T05:49:33;18.30;50.50
39483;DHT22;25682;48.438;1.482;2022-12-10T05:51:58;18.30;50.40
39483;DHT22;25682;48.438;1.482;2022-12-10T05:54:24;18.30;50.30
39483;DHT22;25682;48.438;1.482;2022-12-10T05:56:49;18.30;50.30
39483;DHT22;25682;48.438;1.482;2022-12-10T05:59:15;18.30;50.30
39483;DHT22;25682;48.438;1.482;2022-12-10T06:01:40;18.40;50.30
39483;DHT22;25682;48.438;1.482;2022-12-10T06:04:06;18.40;50.30
39483;DHT22;25682;48.438;1.482;2022-12-10T06:06:33;18.40;50.30
39483;DHT22;25682;48.438;1.482;2022-12-10T06:08:59;18.40;50.20
39483;DHT22;25682;48.438;1.482;2022-12-10T06:11:25;18.40;50.20
39483;DHT22;25682;48.438;1.482;2022-12-10T06:13:51;18.40;50.10
39483;DHT22;25682;48.438;1.482;2022-12-10T06:16:17;18.40;50.10
39483;DHT22;25682;48.438;1.482;2022-12-10T06:18:42;18.40;50.00
39483;DHT22;25682;48.438;1.482;2022-12-10T06:21:12;18.40;50.00
39483;DHT22;25682;48.438;1.482;2022-12-10T06:23:38;18.40;49.90
39483;DHT22;25682;48.438;1.482;2022-12-10T06:26:05;18.40;49.90
39483;DHT22;25682;48.438;1.482;2022-12-10T06:28:30;18.40;49.90
39483;DHT22;25682;48.438;1.482;2022-12-10T06:30:57;18.40;49.90
39483;DHT22;25682;48.438;1.482;2022-12-10T06:33:23;18.40;49.80
39483;DHT22;25682;48.438;1.482;2022-12-10T06:35:48;18.40;49.80
39483;DHT22;25682;48.438;1.482;2022-12-10T06:38:14;18.40;49.80
39483;DHT22;25682;48.438;1.482;2022-12-10T06:40:39;18.50;49.70
39483;DHT22;25682;48.438;1.482;2022-12-10T06:43:05;18.50;49.70
39483;DHT22;25682;48.438;1.482;2022-12-10T06:45:31;18.50;49.60
39483;DHT22;25682;48.438;1.482;2022-12-10T06:47:56;18.50;49.60
39483;DHT22;25682;48.438;1.482;2022-12-10T06:50:22;18.50;49.60
39483;DHT22;25682;48.438;1.482;2022-12-10T06:52:49;18.50;49.50
39483;DHT22;25682;48.438;1.482;2022-12-10T06:55:14;18.50;49.50
39483;DHT22;25682;48.438;1.482;2022-12-10T06:57:40;18.50;49.40
39483;DHT22;25682;48.438;1.482;2022-12-10T07:00:05;18.50;49.30
39483;DHT22;25682;48.438;1.482;2022-12-10T07:02:31;18.50;49.20
39483;DHT22;25682;48.438;1.482;2022-12-10T07:04:57;18.50;49.20
39483;DHT22;25682;48.438;1.482;2022-12-10T07:07:22;18.50;49.20
39483;DHT22;25682;48.438;1.482;2022-12-10T07:09:48;18.50;49.10
39483;DHT22;25682;48.438;1.482;2022-12-10T07:12:13;18.50;49.10
39483;DHT22;25682;48.438;1.482;2022-12-10T07:14:39;18.50;49.00
39483;DHT22;25682;48.438;1.482;2022-12-10T07:17:04;18.50;49.00
39483;DHT22;25682;48.438;1.482;2022-12-10T07:19:30;18.50;48.90
39483;DHT22;25682;48.438;1.482;2022-12-10T07:21:56;18.50;48.90
39483;DHT22;25682;48.438;1.482;2022-12-10T07:24:21;18.50;48.80
39483;DHT22;25682;48.438;1.482;2022-12-10T07:26:47;18.50;48.70
39483;DHT22;25682;48.438;1.482;2022-12-10T07:29:17;18.50;48.70
39483;DHT22;25682;48.438;1.482;2022-12-10T07:31:43;18.50;48.60
39483;DHT22;25682;48.438;1.482;2022-12-10T07:34:09;18.60;48.70
39483;DHT22;25682;48.438;1.482;2022-12-10T07:36:35;18.60;48.60
39483;DHT22;25682;48.438;1.482;2022-12-10T07:39:01;18.60;48.60
39483;DHT22;25682;48.438;1.482;2022-12-10T07:41:26;18.60;48.60
39483;DHT22;25682;48.438;1.482;2022-12-10T07:43:52;18.60;48.50
39483;DHT22;25682;48.438;1.482;2022-12-10T07:46:19;18.60;48.50
39483;DHT22;25682;48.438;1.482;2022-12-10T07:48:45;18.60;48.40
39483;DHT22;25682;48.438;1.482;2022-12-10T07:51:11;18.60;48.40
39483;DHT22;25682;48.438;1.482;2022-12-10T07:53:37;18.60;48.30
39483;DHT22;25682;48.438;1.482;2022-12-10T07:56:02;18.60;48.30
39483;DHT22;25682;48.438;1.482;2022-12-10T07:58:28;18.60;48.30
39483;DHT22;25682;48.438;1.482;2022-12-10T08:00:53;18.60;48.30
39483;DHT22;25682;48.438;1.482;2022-12-10T08:03:19;18.60;48.20
39483;DHT22;25682;48.438;1.482;2022-12-10T08:05:44;18.60;48.20
39483;DHT22;25682;48.438;1.482;2022-12-10T08:08:12;18.60;48.20
39483;DHT22;25682;48.438;1.482;2022-12-10T08:10:38;18.60;48.30
39483;DHT22;25682;48.438;1.482;2022-12-10T08:13:04;18.60;48.30
39483;DHT22;25682;48.438;1.482;2022-12-10T08:15:30;18.60;48.20
39483;DHT22;25682;48.438;1.482;2022-12-10T08:17:55;18.60;48.10
39483;DHT22;25682;48.438;1.482;2022-12-10T08:20:21;18.70;48.10
39483;DHT22;25682;48.438;1.482;2022-12-10T08:22:47;18.60;48.00
39483;DHT22;25682;48.438;1.482;2022-12-10T08:25:12;18.70;48.00
39483;DHT22;25682;48.438;1.482;2022-12-10T08:27:38;18.70;47.90
39483;DHT22;25682;48.438;1.482;2022-12-10T08:30:04;18.70;47.90
39483;DHT22;25682;48.438;1.482;2022-12-10T08:32:29;18.70;47.90
39483;DHT22;25682;48.438;1.482;2022-12-10T08:34:55;18.70;47.90
39483;DHT22;25682;48.438;1.482;2022-12-10T08:37:20;18.70;47.80
39483;DHT22;25682;48.438;1.482;2022-12-10T08:39:46;18.70;47.70
39483;DHT22;25682;48.438;1.482;2022-12-10T08:42:11;18.70;47.80
39483;DHT22;25682;48.438;1.482;2022-12-10T08:44:37;18.70;48.00
39483;DHT22;25682;48.438;1.482;2022-12-10T08:47:02;18.70;48.10
39483;DHT22;25682;48.438;1.482;2022-12-10T08:49:28;18.70;48.20
39483;DHT22;25682;48.438;1.482;2022-12-10T08:51:54;18.70;48.20
39483;DHT22;25682;48.438;1.482;2022-12-10T08:54:19;18.70;48.30
39483;DHT22;25682;48.438;1.482;2022-12-10T08:56:45;18.70;48.30
39483;DHT22;25682;48.438;1.482;2022-12-10T08:59:10;18.70;48.30
39483;DHT22;25682;48.438;1.482;2022-12-10T09:01:36;18.70;48.20
39483;DHT22;25682;48.438;1.482;2022-12-10T09:04:01;18.70;48.20
39483;DHT22;25682;48.438;1.482;2022-12-10T09:06:27;18.70;48.20
39483;DHT22;25682;48.438;1.482;2022-12-10T09:08:53;18.70;48.20
39483;DHT22;25682;48.438;1.482;2022-12-10T09:11:19;18.70;48.10
39483;DHT22;25682;48.438;1.482;2022-12-10T09:13:45;18.70;48.10
39483;DHT22;25682;48.438;1.482;2022-12-10T09:16:11;18.70;48.10
39483;DHT22;25682;48.438;1.482;2022-12-10T09:18:36;18.70;48.00
39483;DHT22;25682;48.438;1.482;2022-12-10T09:21:09;18.60;47.90
39483;DHT22;25682;48.438;1.482;2022-12-10T09:23:34;18.70;47.90
39483;DHT22;25682;48.438;1.482;2022-12-10T09:26:00;18.70;47.90
39483;DHT22;25682;48.438;1.482;2022-12-10T09:28:26;18.70;47.90
39483;DHT22;25682;48.438;1.482;2022-12-10T09:30:55;18.70;47.80
39483;DHT22;25682;48.438;1.482;2022-12-10T09:33:20;18.70;47.80
39483;DHT22;25682;48.438;1.482;2022-12-10T09:35:46;18.70;47.90
39483;DHT22;25682;48.438;1.482;2022-12-10T09:38:11;18.70;47.80
39483;DHT22;25682;48.438;1.482;2022-12-10T09:40:41;18.70;47.80
39483;DHT22;25682;48.438;1.482;2022-12-10T09:48:25;18.80;47.90
39483;DHT22;25682;48.438;1.482;2022-12-10T09:50:56;18.70;47.90
39483;DHT22;25682;48.438;1.482;2022-12-10T09:53:24;18.70;48.00
39483;DHT22;25682;48.438;1.482;2022-12-10T09:55:52;18.70;48.00
39483;DHT22;25682;48.438;1.482;2022-12-10T09:58:19;18.70;48.10
39483;DHT22;25682;48.438;1.482;2022-12-10T10:00:46;18.70;48.10
39483;DHT22;25682;48.438;1.482;2022-12-10T10:03:13;18.70;48.10
39483;DHT22;25682;48.438;1.482;2022-12-10T10:05:40;18.80;48.10
39483;DHT22;25682;48.438;1.482;2022-12-10T10:08:11;18.80;48.10
39483;DHT22;25682;48.438;1.482;2022-12-10T10:10:38;18.80;48.00
39483;DHT22;25682;48.438;1.482;2022-12-10T10:15:34;18.80;48.00
39483;DHT22;25682;48.438;1.482;2022-12-10T10:20:44;18.80;48.10
39483;DHT22;25682;48.438;1.482;2022-12-10T10:23:12;18.80;48.10
39483;DHT22;25682;48.438;1.482;2022-12-10T10:25:38;18.80;48.10
39483;DHT22;25682;48.438;1.482;2022-12-10T10:28:04;18.80;48.10
39483;DHT22;25682;48.438;1.482;2022-12-10T10:30:29;18.80;48.10
39483;DHT22;25682;48.438;1.482;2022-12-10T10:32:56;18.80;48.20
39483;DHT22;25682;48.438;1.482;2022-12-10T10:35:32;18.80;48.20
39483;DHT22;25682;48.438;1.482;2022-12-10T10:37:59;18.80;48.20
39483;DHT22;25682;48.438;1.482;2022-12-10T10:40:30;18.80;48.20
39483;DHT22;25682;48.438;1.482;2022-12-10T10:42:57;18.80;48.10
39483;DHT22;25682;48.438;1.482;2022-12-10T10:50:29;18.90;48.00
39483;DHT22;25682;48.438;1.482;2022-12-10T10:52:55;18.90;48.00
39483;DHT22;25682;48.438;1.482;2022-12-10T10:55:30;18.90;48.00
39483;DHT22;25682;48.438;1.482;2022-12-10T10:57:55;18.90;47.90
39483;DHT22;25682;48.438;1.482;2022-12-10T11:00:21;18.90;47.80
39483;DHT22;25682;48.438;1.482;2022-12-10T15:50:59;18.90;51.20
39483;DHT22;25682;48.438;1.482;2022-12-10T15:53:28;18.90;51.70
39483;DHT22;25682;48.438;1.482;2022-12-10T15:55:59;18.90;51.60
39483;DHT22;25682;48.438;1.482;2022-12-10T15:58:25;18.90;51.50
39483;DHT22;25682;48.438;1.482;2022-12-10T16:00:51;18.90;51.50
39483;DHT22;25682;48.438;1.482;2022-12-10T16:03:16;18.90;51.30
39483;DHT22;25682;48.438;1.482;2022-12-10T16:05:43;18.80;51.30
39483;DHT22;25682;48.438;1.482;2022-12-10T16:08:12;18.80;51.40
39483;DHT22;25682;48.438;1.482;2022-12-10T16:10:39;18.80;51.30
39483;DHT22;25682;48.438;1.482;2022-12-10T16:13:05;18.80;51.30
39483;DHT22;25682;48.438;1.482;2022-12-10T16:15:33;18.80;51.30
39483;DHT22;25682;48.438;1.482;2022-12-10T16:18:03;18.80;51.20
39483;DHT22;25682;48.438;1.482;2022-12-10T16:20:29;18.80;51.30
39483;DHT22;25682;48.438;1.482;2022-12-10T16:22:56;18.80;51.30
39483;DHT22;25682;48.438;1.482;2022-12-10T16:25:22;18.80;51.20
39483;DHT22;25682;48.438;1.482;2022-12-10T16:27:47;18.90;51.30
39483;DHT22;25682;48.438;1.482;2022-12-10T16:30:23;18.90;51.00
39483;DHT22;25682;48.438;1.482;2022-12-10T16:32:48;18.80;51.20
39483;DHT22;25682;48.438;1.482;2022-12-10T16:35:14;18.90;51.20
39483;DHT22;25682;48.438;1.482;2022-12-10T16:37:43;18.90;51.20
39483;DHT22;25682;48.438;1.482;2022-12-10T16:40:10;18.90;51.20
39483;DHT22;25682;48.438;1.482;2022-12-10T16:42:36;18.80;51.20
39483;DHT22;25682;48.438;1.482;2022-12-10T16:45:01;18.90;51.30
39483;DHT22;25682;48.438;1.482;2022-12-10T16:47:27;18.80;51.20
39483;DHT22;25682;48.438;1.482;2022-12-10T16:49:52;18.80;51.20
39483;DHT22;25682;48.438;1.482;2022-12-10T16:52:18;18.80;51.30
39483;DHT22;25682;48.438;1.482;2022-12-10T16:54:43;18.80;51.20
39483;DHT22;25682;48.438;1.482;2022-12-10T16:57:13;18.80;51.20
39483;DHT22;25682;48.438;1.482;2022-12-10T16:59:39;18.80;51.20
39483;DHT22;25682;48.438;1.482;2022-12-10T17:02:15;18.80;51.20
39483;DHT22;25682;48.438;1.482;2022-12-10T17:04:41;18.80;51.20
39483;DHT22;25682;48.438;1.482;2022-12-10T17:07:07;18.80;51.20
39483;DHT22;25682;48.438;1.482;2022-12-10T17:09:33;18.80;51.10
39483;DHT22;25682;48.438;1.482;2022-12-10T17:11:58;18.80;51.10
39483;DHT22;25682;48.438;1.482;2022-12-10T17:14:25;18.80;51.20
39483;DHT22;25682;48.438;1.482;2022-12-10T17:16:52;18.80;51.10
39483;DHT22;25682;48.438;1.482;2022-12-10T17:19:18;18.80;51.10
39483;DHT22;25682;48.438;1.482;2022-12-10T17:21:43;18.80;50.80
39483;DHT22;25682;48.438;1.482;2022-12-10T17:24:09;18.80;50.80
39483;DHT22;25682;48.438;1.482;2022-12-10T17:26:36;18.80;50.90
39483;DHT22;25682;48.438;1.482;2022-12-10T17:29:15;18.80;50.80
39483;DHT22;25682;48.438;1.482;2022-12-10T17:31:41;18.90;50.90
39483;DHT22;25682;48.438;1.482;2022-12-10T17:34:06;18.90;50.70
39483;DHT22;25682;48.438;1.482;2022-12-10T17:36:32;18.90;50.20
39483;DHT22;25682;48.438;1.482;2022-12-10T17:38:57;18.90;49.50
39483;DHT22;25682;48.438;1.482;2022-12-10T17:41:23;18.90;49.10
39483;DHT22;25682;48.438;1.482;2022-12-10T17:43:48;18.80;48.80
39483;DHT22;25682;48.438;1.482;2022-12-10T17:46:15;18.70;48.40
39483;DHT22;25682;48.438;1.482;2022-12-10T17:48:43;18.70;48.00
39483;DHT22;25682;48.438;1.482;2022-12-10T17:51:10;18.70;47.60
39483;DHT22;25682;48.438;1.482;2022-12-10T17:53:36;18.60;47.30
39483;DHT22;25682;48.438;1.482;2022-12-10T17:56:02;18.60;47.10
39483;DHT22;25682;48.438;1.482;2022-12-10T17:58:27;18.70;47.10
39483;DHT22;25682;48.438;1.482;2022-12-10T18:00:53;18.70;47.00
39483;DHT22;25682;48.438;1.482;2022-12-10T18:03:19;18.70;47.00
39483;DHT22;25682;48.438;1.482;2022-12-10T18:05:44;18.70;47.00
39483;DHT22;25682;48.438;1.482;2022-12-10T18:08:14;18.80;47.10
39483;DHT22;25682;48.438;1.482;2022-12-10T18:10:43;18.70;47.10
39483;DHT22;25682;48.438;1.482;2022-12-10T18:13:08;18.70;47.10
39483;DHT22;25682;48.438;1.482;2022-12-10T18:15:34;18.70;47.20
39483;DHT22;25682;48.438;1.482;2022-12-10T18:18:01;18.70;47.30
39483;DHT22;25682;48.438;1.482;2022-12-10T18:22:52;18.80;47.50
39483;DHT22;25682;48.438;1.482;2022-12-10T18:25:18;18.80;47.50
39483;DHT22;25682;48.438;1.482;2022-12-10T18:27:45;18.80;47.50
39483;DHT22;25682;48.438;1.482;2022-12-10T18:30:12;18.80;47.50
39483;DHT22;25682;48.438;1.482;2022-12-10T18:32:37;18.80;47.60
39483;DHT22;25682;48.438;1.482;2022-12-10T18:35:03;18.80;47.70
39483;DHT22;25682;48.438;1.482;2022-12-10T18:37:29;18.80;47.70
39483;DHT22;25682;48.438;1.482;2022-12-10T18:39:54;18.80;47.80
39483;DHT22;25682;48.438;1.482;2022-12-10T18:42:20;18.80;47.90
39483;DHT22;25682;48.438;1.482;2022-12-10T18:44:45;18.80;47.90
39483;DHT22;25682;48.438;1.482;2022-12-10T18:47:10;18.80;48.00
39483;DHT22;25682;48.438;1.482;2022-12-10T18:49:37;18.80;48.00
39483;DHT22;25682;48.438;1.482;2022-12-10T18:52:02;18.80;48.10
39483;DHT22;25682;48.438;1.482;2022-12-10T18:54:28;18.80;48.10
39483;DHT22;25682;48.438;1.482;2022-12-10T18:56:53;18.80;48.10
39483;DHT22;25682;48.438;1.482;2022-12-10T18:59:19;18.80;48.10
39483;DHT22;25682;48.438;1.482;2022-12-10T19:01:44;18.80;48.20
39483;DHT22;25682;48.438;1.482;2022-12-10T19:04:11;18.80;48.20
39483;DHT22;25682;48.438;1.482;2022-12-10T19:06:36;18.80;48.20
39483;DHT22;25682;48.438;1.482;2022-12-10T19:09:03;18.80;48.30
39483;DHT22;25682;48.438;1.482;2022-12-10T19:11:30;18.90;48.70
39483;DHT22;25682;48.438;1.482;2022-12-10T19:13:55;18.90;48.40
39483;DHT22;25682;48.438;1.482;2022-12-10T19:16:23;18.90;48.50
39483;DHT22;25682;48.438;1.482;2022-12-10T19:18:49;18.90;48.40
39483;DHT22;25682;48.438;1.482;2022-12-10T19:21:14;18.90;48.40
39483;DHT22;25682;48.438;1.482;2022-12-10T19:23:40;18.90;48.40
39483;DHT22;25682;48.438;1.482;2022-12-10T19:26:28;18.90;48.40
39483;DHT22;25682;48.438;1.482;2022-12-10T19:28:52;18.90;48.40
39483;DHT22;25682;48.438;1.482;2022-12-10T19:31:18;18.90;48.50
39483;DHT22;25682;48.438;1.482;2022-12-10T19:33:43;18.90;48.40
39483;DHT22;25682;48.438;1.482;2022-12-10T19:36:12;18.80;48.40
39483;DHT22;25682;48.438;1.482;2022-12-10T19:38:40;18.80;48.40
39483;DHT22;25682;48.438;1.482;2022-12-10T19:41:05;18.80;48.50
39483;DHT22;25682;48.438;1.482;2022-12-10T19:43:31;18.80;48.40
39483;DHT22;25682;48.438;1.482;2022-12-10T19:45:59;18.80;48.50
39483;DHT22;25682;48.438;1.482;2022-12-10T19:48:24;18.80;48.50
39483;DHT22;25682;48.438;1.482;2022-12-10T19:50:50;18.80;48.50
39483;DHT22;25682;48.438;1.482;2022-12-10T19:53:15;18.80;48.50
39483;DHT22;25682;48.438;1.482;2022-12-10T19:55:41;18.80;48.50
39483;DHT22;25682;48.438;1.482;2022-12-10T19:58:08;18.80;48.50
39483;DHT22;25682;48.438;1.482;2022-12-10T20:00:34;18.80;48.50
39483;DHT22;25682;48.438;1.482;2022-12-10T20:02:59;18.90;48.50
39483;DHT22;25682;48.438;1.482;2022-12-10T20:05:25;18.80;48.50
39483;DHT22;25682;48.438;1.482;2022-12-10T20:07:50;18.90;48.60
39483;DHT22;25682;48.438;1.482;2022-12-10T20:10:24;18.80;48.60
39483;DHT22;25682;48.438;1.482;2022-12-10T20:12:49;18.80;48.60
39483;DHT22;25682;48.438;1.482;2022-12-10T20:15:15;18.80;48.60
39483;DHT22;25682;48.438;1.482;2022-12-10T20:17:41;18.80;48.60
39483;DHT22;25682;48.438;1.482;2022-12-10T20:20:09;18.80;48.70
39483;DHT22;25682;48.438;1.482;2022-12-10T20:22:37;18.80;48.70
39483;DHT22;25682;48.438;1.482;2022-12-10T20:25:03;18.80;48.70
39483;DHT22;25682;48.438;1.482;2022-12-10T20:27:28;18.80;48.70
39483;DHT22;25682;48.438;1.482;2022-12-10T20:29:54;18.80;48.70
39483;DHT22;25682;48.438;1.482;2022-12-10T20:32:20;18.80;48.70
39483;DHT22;25682;48.438;1.482;2022-12-10T20:34:46;18.70;48.70
39483;DHT22;25682;48.438;1.482;2022-12-10T20:37:11;18.80;48.80
39483;DHT22;25682;48.438;1.482;2022-12-10T20:39:37;18.70;48.70
39483;DHT22;25682;48.438;1.482;2022-12-10T20:42:03;18.80;48.80
39483;DHT22;25682;48.438;1.482;2022-12-10T20:44:28;18.70;48.80